.
WxDataArchive / Data Records for 2010-03-29
2010-03-28 March 2010 2010-03-30

Data Records for Monday, 29 March 2010

Time	Temp	Chill	HIndex	Humid	Dewpt	 Wind 	HiWind	WindDir	Rain 	Barom 
-----	----	-----	------	-----	-----	------	------	-------	-----	----- 
00:00	40.9	40.9	40.9	94	39.3	1	11	225	0.00	29.798 
00:05	40.9	40.9	40.9	94	39.3	1	4	270	0.00	29.798 
00:10	40.9	40.9	40.9	93	39.0	1	2	338	0.00	29.798 
00:15	40.9	40.9	40.9	93	39.0	1	4	338	0.00	29.797 
00:20	40.8	40.8	40.8	93	38.9	1	3	270	0.00	29.797 
00:25	40.8	40.8	40.8	93	38.9	1	5	315	0.00	29.797 
00:30	40.8	40.8	40.8	93	38.9	1	5	0	0.00	29.797 
00:35	40.8	40.8	40.8	93	38.9	1	4	338	0.00	29.797 
00:40	40.6	40.6	40.6	93	38.7	1	3	315	0.00	29.797 
00:45	40.6	40.6	40.6	93	38.7	1	2	315	0.00	29.798 
00:50	40.6	40.6	40.6	92	38.5	0	3	315	0.00	29.798 
00:55	40.6	40.6	40.6	92	38.5	1	5	270	0.00	29.798 
01:00	40.5	40.5	40.5	92	38.4	1	3	270	0.00	29.800 
01:05	40.5	40.5	40.5	92	38.4	1	3	0	0.00	29.800 
01:10	40.5	40.5	40.5	91	38.1	0	3	315	0.00	29.800 
01:15	40.3	40.3	40.3	91	37.9	1	4	315	0.00	29.804 
01:20	40.3	40.3	40.3	90	37.6	1	3	338	0.00	29.804 
01:25	40.3	40.3	40.3	90	37.6	1	3	338	0.00	29.804 
01:30	40.3	40.3	40.3	89	37.3	1	7	338	0.00	29.810 
01:35	40.3	40.3	40.3	89	37.3	1	6	270	0.00	29.810 
01:40	40.3	40.3	40.3	88	37.0	1	3	270	0.00	29.810 
01:45	40.2	40.2	40.2	88	36.9	0	2	292	0.00	29.812 
01:50	40.2	40.2	40.2	88	36.9	1	4	22	0.00	29.812 
01:55	40.2	40.2	40.2	88	36.9	1	3	0	0.00	29.812 
02:00	40.1	40.1	40.1	87	36.5	1	3	0	0.00	29.816 
02:05	39.9	39.9	39.9	87	36.4	1	5	338	0.00	29.816 
02:10	39.8	39.8	39.8	87	36.3	2	6	0	0.00	29.816 
02:15	39.8	39.8	39.8	87	36.3	1	5	0	0.00	29.818 
02:20	39.6	39.6	39.6	87	36.1	2	5	338	0.00	29.818 
02:25	39.5	39.5	39.5	87	36.0	1	3	338	0.00	29.818 
02:30	39.5	39.5	39.5	87	36.0	1	3	338	0.00	29.821 
02:35	39.5	39.5	39.5	88	36.2	0	3	338	0.00	29.821 
02:40	39.3	39.3	39.3	88	36.0	0	2	338	0.00	29.821 
02:45	39.3	39.3	39.3	88	36.0	0	2	338	0.00	29.825 
02:50	39.3	39.3	39.3	88	36.0	1	7	112	0.00	29.825 
02:55	39.3	39.3	39.3	88	36.0	1	4	270	0.00	29.825 
03:00	39.3	39.3	39.3	88	36.0	1	5	338	0.00	29.828 
03:05	39.3	39.3	39.3	88	36.0	1	3	338	0.00	29.828 
03:10	39.3	39.3	39.3	88	36.0	1	4	0	0.00	29.828 
03:15	39.5	39.5	39.5	88	36.2	0	4	0	0.00	29.826 
03:20	39.5	39.5	39.5	88	36.2	0	3	0	0.00	29.826 
03:25	39.5	39.5	39.5	88	36.2	1	2	315	0.00	29.826 
03:30	39.5	39.5	39.5	88	36.2	1	4	315	0.00	29.829 
03:35	39.6	39.6	39.6	88	36.3	1	4	0	0.00	29.829 
03:40	39.6	39.6	39.6	88	36.3	1	4	22	0.00	29.829 
03:45	39.6	39.6	39.6	88	36.3	1	2	0	0.00	29.831 
03:50	39.8	39.8	39.8	88	36.5	1	3	338	0.00	29.831 
03:55	39.8	39.8	39.8	87	36.3	1	3	22	0.00	29.831 
04:00	39.8	39.8	39.8	87	36.3	1	3	22	0.00	29.836 
04:05	39.8	39.8	39.8	87	36.3	1	4	22	0.00	29.836 
04:10	39.8	39.8	39.8	87	36.3	0	2	315	0.00	29.836 
04:15	39.8	39.8	39.8	87	36.3	0	2	68	0.00	29.836 
04:20	39.8	39.8	39.8	87	36.3	1	5	22	0.00	29.836 
04:25	39.8	39.8	39.8	87	36.3	1	4	338	0.00	29.836 
04:30	39.8	39.8	39.8	87	36.3	1	5	0	0.00	29.837 
04:35	39.9	39.9	39.9	87	36.4	1	5	0	0.00	29.837 
04:40	39.9	39.9	39.9	87	36.4	0	3	338	0.00	29.837 
04:45	40.1	40.1	40.1	87	36.5	1	5	0	0.00	29.838 
04:50	40.1	40.1	40.1	87	36.5	1	4	338	0.00	29.838 
04:55	40.2	40.2	40.2	87	36.6	1	4	338	0.00	29.838 
05:00	40.2	40.2	40.2	86	36.4	1	3	0	0.00	29.839 
05:05	40.2	40.2	40.2	86	36.4	1	4	45	0.00	29.839 
05:10	40.2	40.2	40.2	86	36.4	1	5	45	0.00	29.839 
05:15	40.2	40.2	40.2	86	36.4	1	5	22	0.00	29.843 
05:20	40.2	40.2	40.2	86	36.4	0	2	270	0.00	29.843 
05:25	40.2	40.2	40.2	86	36.4	0	4	22	0.00	29.843 
05:30	40.2	40.2	40.2	86	36.4	1	3	112	0.00	29.847 
05:35	40.2	40.2	40.2	85	36.1	0	5	22	0.00	29.847 
05:40	40.1	40.1	40.1	85	36.0	1	6	22	0.00	29.847 
05:45	40.1	40.1	40.1	85	36.0	0	2	45	0.00	29.848 
05:50	39.9	39.9	39.9	84	35.5	1	5	338	0.00	29.848 
05:55	39.9	39.9	39.9	84	35.5	1	6	90	0.00	29.848 
06:00	39.8	39.8	39.8	84	35.4	1	3	22	0.00	29.854 
06:05	39.8	39.8	39.8	83	35.1	1	10	90	0.00	29.854 
06:10	39.6	39.6	39.6	83	34.9	1	5	45	0.00	29.854 
06:15	39.5	39.5	39.5	83	34.8	1	5	68	0.00	29.856 
06:20	39.3	39.3	39.3	82	34.3	1	3	0	0.00	29.856 
06:25	38.9	38.9	38.9	82	33.9	0	2	0	0.00	29.856 
06:30	38.8	38.8	38.8	82	33.8	0	2	0	0.00	29.857 
06:35	38.5	38.5	38.5	83	33.8	0	4	22	0.00	29.857 
06:40	38.2	38.2	38.2	83	33.5	0	1	338	0.00	29.857 
06:45	38.0	38.0	38.0	84	33.6	1	3	315	0.00	29.863 
06:50	37.5	37.5	37.5	84	33.1	1	4	338	0.00	29.863 
06:55	36.9	36.9	36.9	85	32.8	0	2	292	0.00	29.863 
07:00	36.5	36.5	36.5	85	32.4	1	3	338	0.00	29.871 
07:05	36.2	36.2	36.2	86	32.4	1	3	225	0.00	29.871 
07:10	35.8	35.8	35.8	86	32.0	1	4	248	0.00	29.871 
07:15	35.5	35.5	35.5	86	31.7	1	5	270	0.00	29.883 
07:20	35.2	35.2	35.2	86	31.4	1	4	338	0.00	29.883 
07:25	34.9	34.9	34.9	86	31.1	0	2	338	0.00	29.883 
07:30	34.7	34.7	34.7	86	30.9	1	3	270	0.00	29.892 
07:35	34.6	34.6	34.6	86	30.9	1	4	270	0.00	29.892 
07:40	34.6	34.6	34.6	86	30.9	1	4	338	0.00	29.892 
07:45	34.4	34.4	34.4	86	30.7	0	2	315	0.00	29.900 
07:50	34.3	34.3	34.3	86	30.6	1	5	270	0.00	29.900 
07:55	34.3	34.3	34.3	85	30.3	1	3	338	0.00	29.900 
08:00	34.3	34.3	34.3	85	30.3	1	4	338	0.00	29.906 
08:05	34.4	34.4	34.4	85	30.4	0	2	315	0.00	29.906 
08:10	34.4	34.4	34.4	85	30.4	1	3	338	0.00	29.906 
08:15	34.6	34.6	34.6	84	30.3	1	4	338	0.00	29.912 
08:20	34.7	34.7	34.7	84	30.4	1	4	315	0.00	29.912 
08:25	35.0	35.0	35.0	84	30.7	0	2	22	0.00	29.912 
08:30	35.3	35.3	35.3	83	30.7	0	4	22	0.00	29.917 
08:35	35.5	35.5	35.5	82	30.6	1	3	0	0.00	29.917 
08:40	35.8	35.8	35.8	81	30.6	1	3	0	0.00	29.917 
08:45	36.0	36.0	36.0	81	30.7	1	4	0	0.00	29.924 
08:50	36.3	36.3	36.3	81	31.0	1	6	0	0.00	29.924 
08:55	36.5	36.5	36.5	80	30.9	1	6	45	0.00	29.924 
09:00	36.6	36.6	36.6	80	31.0	1	5	0	0.00	29.931 
09:05	36.9	36.9	36.9	79	31.0	1	5	22	0.00	29.931 
09:10	37.0	37.0	37.0	79	31.1	1	4	338	0.00	29.931 
09:15	37.2	37.2	37.2	78	31.0	1	4	0	0.00	29.937 
09:20	37.3	37.3	37.3	78	31.1	1	4	0	0.00	29.937 
09:25	37.8	37.8	37.8	78	31.6	1	4	338	0.00	29.937 
09:30	38.0	38.0	38.0	77	31.4	0	2	338	0.00	29.944 
09:35	38.3	38.3	38.3	78	32.1	1	3	338	0.00	29.944 
09:40	38.6	38.6	38.6	77	32.0	1	4	315	0.00	29.944 
09:45	39.1	39.1	39.1	77	32.5	0	3	315	0.00	29.946 
09:50	39.2	39.2	39.2	75	32.0	1	4	338	0.00	29.946 
09:55	39.6	39.6	39.6	75	32.3	1	3	338	0.00	29.946 
10:00	39.9	39.9	39.9	75	32.6	1	4	0	0.00	29.950 
10:05	40.2	40.2	40.2	75	32.9	1	3	22	0.00	29.950 
10:10	40.6	40.6	40.6	74	33.0	1	5	22	0.00	29.950 
10:15	41.1	41.1	41.1	74	33.5	1	3	45	0.00	29.957 
10:20	41.3	41.3	41.3	73	33.3	1	6	22	0.00	29.957 
10:25	41.8	41.8	41.8	73	33.8	1	3	0	0.00	29.957 
10:30	42.2	42.2	42.2	73	34.2	1	3	22	0.00	29.956 
10:35	42.3	42.3	42.3	72	33.9	1	4	315	0.00	29.956 
10:40	42.6	42.6	42.6	71	33.9	1	3	0	0.00	29.956 
10:45	43.1	43.1	43.1	73	35.0	1	5	0	0.00	29.958 
10:50	43.8	43.8	43.8	71	35.0	1	3	68	0.00	29.958 
10:55	43.9	43.9	43.9	70	34.8	1	4	22	0.00	29.958 
11:00	44.2	44.2	44.2	69	34.7	1	3	45	0.00	29.955 
11:05	44.6	44.6	44.6	69	35.1	1	3	22	0.00	29.955 
11:10	44.8	44.8	44.8	69	35.3	1	4	22	0.00	29.955 
11:15	44.9	44.9	44.9	68	35.0	1	3	315	0.00	29.963 
11:20	45.4	45.4	45.4	69	35.8	1	3	45	0.00	29.963 
11:25	46.0	46.0	46.0	68	36.0	1	3	22	0.00	29.963 
11:30	46.2	46.2	46.2	68	36.2	1	3	45	0.00	29.969 
11:35	46.2	46.2	46.2	65	35.1	1	3	45	0.00	29.969 
11:40	46.4	46.4	46.4	67	36.0	2	9	22	0.00	29.969 
11:45	46.2	46.2	46.2	65	35.1	1	4	22	0.00	29.970 
11:50	46.2	46.2	46.2	64	34.7	1	4	338	0.00	29.970 
11:55	46.7	46.7	46.7	65	35.6	1	3	338	0.00	29.970 
12:00	47.0	47.0	47.0	65	35.9	1	4	315	0.00	29.968 
12:05	47.3	47.3	47.3	66	36.5	1	3	338	0.00	29.968 
12:10	47.3	47.3	47.3	64	35.7	1	3	338	0.00	29.968 
12:15	47.0	47.0	47.0	63	35.1	2	5	22	0.00	29.969 
12:20	47.1	47.1	47.1	65	35.9	1	4	0	0.00	29.969 
12:25	47.6	47.6	47.6	63	35.6	1	3	45	0.00	29.969 
12:30	48.2	48.2	48.2	63	36.2	1	3	338	0.00	29.968 
12:35	48.3	48.3	48.3	63	36.3	1	5	315	0.00	29.968 
12:40	48.3	48.3	48.3	64	36.7	1	5	0	0.00	29.968 
12:45	48.3	48.3	48.3	64	36.7	1	4	338	0.00	29.969 
12:50	48.6	48.6	48.6	63	36.6	2	6	22	0.00	29.969 
12:55	49.1	49.1	49.1	64	37.5	1	6	68	0.00	29.969 
13:00	49.4	49.4	49.4	62	36.9	1	5	90	0.00	29.968 
13:05	49.5	49.5	49.5	61	36.6	1	2	45	0.00	29.968 
13:10	49.5	49.5	49.5	59	35.8	1	8	0	0.00	29.968 
13:15	49.8	49.8	49.8	62	37.3	2	7	68	0.00	29.970 
13:20	49.8	49.8	49.8	61	36.9	1	6	22	0.00	29.970 
13:25	49.8	49.8	49.8	60	36.5	1	4	135	0.00	29.970 
13:30	49.9	49.9	49.9	60	36.6	1	5	45	0.00	29.974 
13:35	49.5	49.5	49.5	61	36.6	1	4	22	0.00	29.974 
13:40	49.5	49.5	49.5	60	36.2	1	5	90	0.00	29.974 
13:45	49.6	49.6	49.6	60	36.3	1	5	90	0.00	29.970 
13:50	49.9	49.9	49.9	57	35.3	2	6	90	0.00	29.970 
13:55	50.4	50.4	50.4	58	36.2	1	4	338	0.00	29.970 
14:00	50.8	50.8	50.8	58	36.6	1	3	90	0.00	29.969 
14:05	50.8	50.8	50.8	57	36.1	1	5	338	0.00	29.969 
14:10	50.8	50.8	50.8	60	37.4	1	3	45	0.00	29.969 
14:15	51.0	51.0	51.0	57	36.3	1	3	22	0.00	29.968 
14:20	51.1	51.1	51.1	57	36.4	1	4	270	0.00	29.968 
14:25	51.3	51.3	51.3	56	36.1	1	3	0	0.00	29.968 
14:30	51.3	51.3	51.3	56	36.1	2	6	112	0.00	29.969 
14:35	51.4	51.4	51.4	60	38.0	1	5	112	0.00	29.969 
14:40	51.6	51.6	51.6	55	36.0	0	4	22	0.00	29.969 
14:45	51.9	51.9	51.9	59	38.0	1	3	90	0.00	29.970 
14:50	52.2	52.2	52.2	57	37.4	1	4	22	0.00	29.970 
14:55	52.5	52.5	52.5	57	37.7	1	3	112	0.00	29.970 
15:00	52.9	52.9	52.9	56	37.6	1	5	90	0.00	29.970 
15:05	52.6	52.6	52.6	53	36.0	1	4	90	0.00	29.970 
15:10	52.3	52.3	52.3	53	35.7	1	3	22	0.00	29.970 
15:15	52.3	52.3	52.3	54	36.2	2	7	22	0.00	29.969 
15:20	52.3	52.3	52.3	52	35.2	3	7	90	0.00	29.969 
15:25	51.9	51.9	51.9	55	36.2	1	5	112	0.00	29.969 
15:30	51.6	51.6	51.6	53	35.0	1	3	45	0.00	29.967 
15:35	51.3	51.3	51.3	54	35.2	1	4	68	0.00	29.967 
15:40	51.7	51.7	51.7	52	34.6	1	5	45	0.00	29.967 
15:45	52.2	52.2	52.2	54	36.1	1	4	45	0.00	29.966 
15:50	52.8	52.8	52.8	54	36.6	1	5	112	0.00	29.966 
15:55	52.5	52.5	52.5	54	36.3	2	7	90	0.00	29.966 
16:00	52.0	52.0	52.0	54	35.9	0	3	90	0.00	29.965 
16:05	51.9	51.9	51.9	53	35.3	1	4	90	0.00	29.965 
16:10	51.6	51.6	51.6	54	35.5	1	4	90	0.00	29.965 
16:15	52.0	52.0	52.0	56	36.8	1	3	112	0.00	29.962 
16:20	52.3	52.3	52.3	56	37.1	2	6	68	0.00	29.962 
16:25	52.2	52.2	52.2	53	35.6	3	9	112	0.00	29.962 
16:30	51.7	51.7	51.7	53	35.1	2	6	112	0.00	29.964 
16:35	51.6	51.6	51.6	55	36.0	2	5	90	0.00	29.964 
16:40	52.0	52.0	52.0	55	36.3	1	6	112	0.00	29.964 
16:45	52.5	52.5	52.5	54	36.3	1	5	112	0.00	29.961 
16:50	52.8	52.8	52.8	53	36.1	1	5	338	0.00	29.961 
16:55	52.9	52.9	52.9	54	36.7	1	4	90	0.00	29.961 
17:00	53.1	53.1	53.1	52	35.9	0	4	90	0.00	29.961 
17:05	53.3	53.3	53.3	54	37.1	2	6	112	0.00	29.961 
17:10	52.8	52.8	52.8	50	34.7	4	10	112	0.00	29.961 
17:15	52.5	52.5	52.5	54	36.3	1	5	45	0.00	29.958 
17:20	52.2	52.2	52.2	53	35.6	1	5	68	0.00	29.958 
17:25	51.7	51.7	51.7	54	35.6	1	7	90	0.00	29.958 
17:30	51.7	51.7	51.7	54	35.6	0	2	338	0.00	29.960 
17:35	52.2	52.2	52.2	54	36.1	1	3	90	0.00	29.960 
17:40	52.6	52.6	52.6	52	35.5	1	4	0	0.00	29.960 
17:45	52.8	52.8	52.8	53	36.1	1	4	112	0.00	29.961 
17:50	52.6	52.6	52.6	52	35.5	0	3	45	0.00	29.961 
17:55	52.5	52.5	52.5	51	34.9	1	3	112	0.00	29.961 
18:00	52.3	52.3	52.3	52	35.2	1	4	68	0.00	29.963 
18:05	52.0	52.0	52.0	51	34.4	1	3	90	0.00	29.963 
18:10	51.9	51.9	51.9	54	35.8	1	6	90	0.00	29.963 
18:15	51.4	51.4	51.4	55	35.8	2	10	112	0.00	29.966 
18:20	51.1	51.1	51.1	55	35.5	1	4	112	0.00	29.966 
18:25	51.0	51.0	51.0	56	35.9	2	6	112	0.00	29.966 
18:30	50.8	50.8	50.8	55	35.2	1	6	90	0.00	29.968 
18:35	50.8	50.8	50.8	56	35.7	1	3	45	0.00	29.968 
18:40	50.5	50.5	50.5	57	35.8	1	3	68	0.00	29.968 
18:45	50.4	50.4	50.4	57	35.7	1	3	90	0.00	29.972 
18:50	50.1	50.1	50.1	58	35.9	1	3	90	0.00	29.972 
18:55	49.9	49.9	49.9	58	35.7	1	4	135	0.00	29.972 
19:00	49.9	49.9	49.9	58	35.7	2	7	90	0.00	29.973 
19:05	50.1	50.1	50.1	58	35.9	0	2	90	0.00	29.973 
19:10	49.9	49.9	49.9	58	35.7	1	4	112	0.00	29.973 
19:15	49.8	49.8	49.8	58	35.6	1	3	0	0.00	29.978 
19:20	49.5	49.5	49.5	59	35.8	0	1	0	0.00	29.978 
19:25	49.2	49.2	49.2	59	35.5	0	2	0	0.00	29.978 
19:30	48.9	48.9	48.9	59	35.2	0	2	45	0.00	29.985 
19:35	48.6	48.6	48.6	60	35.3	0	1	68	0.00	29.985 
19:40	48.3	48.3	48.3	61	35.5	0	1	68	0.00	29.985 
19:45	47.9	47.9	47.9	62	35.5	0	1	68	0.00	29.987 
19:50	47.6	47.6	47.6	62	35.2	0	1	68	0.00	29.987 
19:55	47.3	47.3	47.3	63	35.4	0	1	68	0.00	29.987 
20:00	46.8	46.8	46.8	64	35.3	0	0	---	0.00	29.989 
20:05	46.5	46.5	46.5	64	35.0	0	1	68	0.00	29.989 
20:10	46.1	46.1	46.1	65	35.0	0	1	68	0.00	29.989 
20:15	45.8	45.8	45.8	65	34.7	0	0	---	0.00	29.984 
20:20	45.4	45.4	45.4	66	34.7	0	0	---	0.00	29.984 
20:25	45.1	45.1	45.1	67	34.8	0	0	---	0.00	29.984 
20:30	44.6	44.6	44.6	68	34.7	0	0	---	0.00	29.990 
20:35	44.3	44.3	44.3	69	34.8	0	1	68	0.00	29.990 
20:40	44.2	44.2	44.2	69	34.7	0	0	---	0.00	29.990 
20:45	43.9	43.9	43.9	69	34.4	0	0	---	0.00	29.989 
20:50	43.6	43.6	43.6	70	34.5	0	0	---	0.00	29.989 
20:55	43.3	43.3	43.3	71	34.5	0	0	---	0.00	29.989 
21:00	42.9	42.9	42.9	71	34.2	0	0	---	0.00	29.989 
21:05	42.6	42.6	42.6	72	34.2	0	0	---	0.00	29.989 
21:10	42.2	42.2	42.2	73	34.2	0	0	---	0.00	29.989 
21:15	41.9	41.9	41.9	73	33.9	0	0	---	0.00	29.992 
21:20	41.6	41.6	41.6	74	33.9	0	0	---	0.00	29.992 
21:25	41.2	41.2	41.2	74	33.6	0	0	---	0.00	29.992 
21:30	40.9	40.9	40.9	75	33.6	0	0	---	0.00	29.996 
21:35	40.5	40.5	40.5	75	33.2	0	0	---	0.00	29.996 
21:40	40.2	40.2	40.2	78	33.9	0	0	---	0.00	29.996 
21:45	40.1	40.1	40.1	79	34.1	0	1	68	0.00	29.997 
21:50	40.1	40.1	40.1	79	34.1	0	1	68	0.00	29.997 
21:55	39.9	39.9	39.9	79	33.9	0	0	---	0.00	29.997 
22:00	39.9	39.9	39.9	80	34.2	0	0	---	0.00	30.007 
22:05	39.6	39.6	39.6	80	33.9	0	0	---	0.00	30.007 
22:10	39.5	39.5	39.5	80	33.9	0	0	---	0.00	30.007 
22:15	39.2	39.2	39.2	80	33.6	0	0	---	0.00	30.006 
22:20	38.9	38.9	38.9	81	33.6	0	0	---	0.00	30.006 
22:25	38.6	38.6	38.6	81	33.3	0	0	---	0.00	30.006 
22:30	38.5	38.5	38.5	82	33.5	0	0	---	0.00	30.007 
22:35	38.2	38.2	38.2	82	33.2	0	0	---	0.00	30.007 
22:40	37.9	37.9	37.9	83	33.2	0	0	---	0.00	30.007 
22:45	37.9	37.9	37.9	83	33.2	0	2	68	0.00	30.008 
22:50	37.9	37.9	37.9	83	33.2	0	0	---	0.00	30.008 
22:55	37.9	37.9	37.9	83	33.2	0	1	68	0.00	30.008 
23:00	37.9	37.9	37.9	84	33.5	0	1	68	0.00	30.012 
23:05	38.2	38.2	38.2	83	33.5	0	1	68	0.00	30.012 
23:10	38.6	38.6	38.6	82	33.6	0	2	68	0.00	30.012 
23:15	39.1	39.1	39.1	81	33.8	1	4	68	0.00	30.007 
23:20	39.3	39.3	39.3	80	33.7	1	3	90	0.00	30.007 
23:25	39.3	39.3	39.3	80	33.7	0	3	90	0.00	30.007 
23:30	39.3	39.3	39.3	80	33.7	1	2	112	0.00	30.014 
23:35	39.2	39.2	39.2	80	33.6	0	2	112	0.00	30.014 
23:40	39.1	39.1	39.1	81	33.8	0	2	112	0.00	30.014 
23:45	38.8	38.8	38.8	81	33.5	0	1	112	0.00	30.019 
23:50	38.5	38.5	38.5	81	33.2	0	0	---	0.00	30.019 
23:55	38.2	38.2	38.2	82	33.2	0	1	112	0.00	30.019 

CoCoRaHS
IN-AL-39
A2 Web Hosting
Creative Commons License
GoDaddy
search engine by freefind advanced

loaded 2018-11-17 19:35:30 • last modified 2010-11-18 10:43:29
Privacy PolicyDisclaimer
• wx.awcolley.com is powered by PmWiki v.2002016 •
• all content (unless otherwise noted) © 2018 A W Colley